Flight Track Log - Related Links

Times and Time Zones

All times are in EDT time to prevent confusion due to time zone crossing. See the SKW4634 flight status page for this flight to view local times or setup timezone preferences in your user account.

Time Position Orientation Groundspeed Altitude Reporting Facility
EDT Latitude Longitude Course Direction KTS MPH feet Rate Location/Type
Mon 10:22:07 PM 40.8061 -111.9767 14° North 153 176 4,900  Level Salt Lake Center
Mon 10:22:43 PM 40.8364 -111.9778 358° North 176 203 5,900 1,856 Climbing Salt Lake Center
Mon 10:23:44 PM 40.8967 -111.9883 352° North 238 274 7,900 1,814 Climbing Salt Lake Center
Mon 10:24:09 PM 40.9225 -111.9919 354° North 228 262 8,500 1,862 Climbing Salt Lake Center
Mon 10:25:11 PM 40.9989 -111.9936 359° North 279 321 10,600 2,000 Climbing Salt Lake Center
Mon 10:26:00 PM 41.3270 -111.7397 37° Northeast  Level FlightAware Approximate
Mon 10:26:12 PM 41.0725 -111.9397 29° Northeast 298 343 12,600  Level Salt Lake Center
Mon 10:27:00 PM 41.4402 -111.6756 14° North  Level FlightAware Approximate
Mon 10:27:14 PM 41.1539 -111.8803 29° Northeast 329 379 13,600  Level Salt Lake Center
Mon 10:28:15 PM 41.2428 -111.8158 29° Northeast 358 412 15,000 1,268 Climbing Salt Lake Center
Mon 10:29:17 PM 41.3356 -111.7472 29° Northeast 380 437 16,200 1,065 Climbing Salt Lake Center
Mon 10:30:19 PM 41.4378 -111.7428 North 367 422 17,200 1,317 Climbing Salt Lake Center
Mon 10:31:20 PM 41.5431 -111.7556 355° North 379 436 18,900 1,512 Climbing Salt Lake Center
Mon 10:32:22 PM 41.6533 -111.7683 355° North 397 457 20,300 1,951 Climbing Salt Lake Center
Mon 10:33:23 PM 41.7883 -111.7856 355° North 408 470 22,900 1,854 Climbing Salt Lake Center
Mon 10:34:25 PM 41.8969 -111.7997 354° North 394 453 24,100 1,161 Climbing Salt Lake Center
Mon 10:35:27 PM 42.0136 -111.8119 356° North 415 478 25,300 976 Climbing Salt Lake Center
Mon 10:36:28 PM 42.1333 -111.8269 355° North 430 495 26,100 1,122 Climbing Salt Lake Center
Mon 10:37:30 PM 42.2556 -111.8414 355° North 441 507 27,600 1,317 Climbing Salt Lake Center
Mon 10:38:31 PM 42.3786 -111.8561 355° North 444 511 28,800 1,122 Climbing Salt Lake Center
Mon 10:39:33 PM 42.5025 -111.8742 354° North 447 514 29,900 1,073 Climbing Salt Lake Center
Mon 10:40:34 PM 42.6553 -111.8922 355° North 460 529 31,000 537 Climbing Salt Lake Center
Mon 10:41:36 PM 42.7756 -111.9078 355° North 474 545 31,000  Level Salt Lake Center
Mon 10:42:38 PM 42.9275 -111.9267 355° North 488 562 31,000 293 Level Salt Lake Center
Mon 10:43:39 PM 43.0569 -111.9428 355° North 488 562 31,600 634 Climbing Salt Lake Center
Mon 10:44:41 PM 43.1822 -111.9581 355° North 476 548 32,300 780 Climbing Salt Lake Center
Mon 10:45:42 PM 43.3292 -111.9764 355° North 474 545 33,200 1,415 Climbing Salt Lake Center
Mon 10:46:44 PM 43.4528 -111.9897 356° North 463 533 35,200 1,355 Climbing Salt Lake Center
Mon 10:47:46 PM 43.5858 -112.0089 354° North 432 497 36,000 390 Climbing Salt Lake Center
Mon 10:48:47 PM 43.7042 -112.0244 355° North 444 511 36,000  Level Salt Lake Center
Mon 10:49:49 PM 43.8458 -112.0419 355° North 457 526 36,000  Level Salt Lake Center
Mon 10:50:50 PM 43.9694 -112.0589 354° North 462 532 36,000  Level Salt Lake Center
Mon 10:51:52 PM 44.0928 -112.0739 355° North 464 534 36,000  Level Salt Lake Center
Mon 10:52:53 PM 44.2339 -112.0917 355° North 456 525 36,000  Level Salt Lake Center
Mon 10:53:55 PM 44.3539 -112.1097 354° North 452 520 36,000  Level Salt Lake Center
Mon 10:54:56 PM 44.4933 -112.1269 355° North 448 516 36,000  Level Salt Lake Center
Mon 10:55:58 PM 44.6106 -112.1422 355° North 440 506 36,000  Level Salt Lake Center
Mon 10:57:00 PM 44.7267 -112.1589 354° North 437 503 36,000  Level Salt Lake Center
Mon 10:58:01 PM 44.8619 -112.1769 355° North 435 501 36,000  Level Salt Lake Center
Mon 10:59:03 PM 44.9758 -112.1919 355° North 429 494 36,000  Level Salt Lake Center
Mon 11:00:04 PM 45.0917 -112.2081 354° North 433 498 36,000  Level Salt Lake Center
Mon 11:01:06 PM 45.2253 -112.2264 354° North 431 496 36,000  Level Salt Lake Center
Mon 11:02:07 PM 45.3397 -112.2411 355° North 432 497 36,000  Level Salt Lake Center
Mon 11:03:09 PM 45.4794 -112.2617 354° North 443 510 36,000  Level Salt Lake Center
Mon 11:04:10 PM 45.6056 -112.2789 355° North 446 513 36,000  Level Salt Lake Center
Mon 11:05:12 PM 45.7317 -112.2975 354° North 446 513 36,000  Level Salt Lake Center
Mon 11:06:13 PM 45.8594 -112.3136 355° North 450 518 36,000  Level Salt Lake Center
Mon 11:07:15 PM 45.9867 -112.3308 355° North 450 518 36,000  Level Salt Lake Center
Mon 11:08:16 PM 46.1136 -112.3500 354° North 450 518 36,000  Level Salt Lake Center
Mon 11:09:17 PM 46.2378 -112.3672 355° North 442 509 36,000  Level Salt Lake Center
Mon 11:10:19 PM 46.3617 -112.3856 354° North 439 505 36,000  Level Salt Lake Center
Mon 11:11:20 PM 46.4744 -112.3997 355° North 443 510 36,000  Level Salt Lake Center
Mon 11:12:22 PM 46.5958 -112.4175 354° North 440 506 36,000  Level Salt Lake Center
Mon 11:13:23 PM 46.7167 -112.4347 354° North 437 503 36,000  Level Salt Lake Center
Mon 11:14:24 PM 46.8369 -112.4506 355° North 434 499 36,000  Level Salt Lake Center
Mon 11:15:26 PM 46.9581 -112.4675 355° North 435 501 36,000  Level Salt Lake Center
Mon 11:16:27 PM 47.1042 -112.4906 354° North 440 506 36,000  Level Salt Lake Center
Mon 11:17:28 PM 47.2264 -112.5069 355° North 439 505 36,000  Level Salt Lake Center
Mon 11:18:30 PM 47.3489 -112.5264 354° North 441 507 36,000  Level Salt Lake Center
Mon 11:19:31 PM 47.4736 -112.5450 354° North 449 517 36,000  Level Salt Lake Center
Mon 11:20:32 PM 47.5994 -112.5636 354° North 453 521 36,000  Level Salt Lake Center
Mon 11:21:33 PM 47.7256 -112.5822 354° North 454 522 36,000  Level Salt Lake Center
Mon 11:22:35 PM 47.8558 -112.6008 355° North 459 528 36,000  Level Salt Lake Center
Mon 11:23:36 PM 47.9842 -112.6211 354° North 463 533 36,000  Level Salt Lake Center
Mon 11:24:37 PM 48.1100 -112.6403 354° North 461 531 36,000  Level Salt Lake Center
Mon 11:25:38 PM 48.2361 -112.6592 354° North 460 529 36,000  Level Salt Lake Center
Mon 11:26:40 PM 48.3614 -112.6783 354° North 457 526 36,000  Level Salt Lake Center
Mon 11:27:41 PM 48.5119 -112.7011 354° North 457 526 36,000  Level Salt Lake Center
Mon 11:28:42 PM 48.6389 -112.7203 354° North 460 529 36,000  Level Salt Lake Center
Mon 11:29:44 PM 48.7642 -112.7403 354° North 456 525 36,000  Level Salt Lake Center
Mon 11:30:45 PM 48.8864 -112.7589 354° North 449 517 36,000  Level Salt Lake Center
Mon 11:31:46 PM 49.0108 -112.7800 354° North 450 518 36,000  Level Salt Lake Center
Mon 11:32:58 PM 49.1500 -112.8167 350° North 450 518 36,000  Level Edmonton Center
Mon 11:33:58 PM 49.2667 -112.8667 344° North 440 506 36,000  Level Edmonton Center
Mon 11:34:58 PM 49.3833 -112.8833 355° North 440 506 36,000  Level Edmonton Center
Mon 11:35:58 PM 49.5000 -112.9333 344° North 430 495 36,000  Level Edmonton Center
Mon 11:36:58 PM 49.6167 -112.9833 344° North 430 495 36,000 -100 Level Edmonton Center
Mon 11:37:58 PM 49.7333 -113.0333 345° North 440 506 35,800 -1,050 Descending Edmonton Center
Mon 11:38:58 PM 49.8500 -113.0833 345° North 450 518 33,900 -1,950 Descending Edmonton Center
Mon 11:39:58 PM 49.9667 -113.1167 350° North 450 518 31,900 -2,050 Descending Edmonton Center
Mon 11:40:58 PM 50.1000 -113.1667 346° North 430 495 29,800 -2,150 Descending Edmonton Center
Mon 11:41:58 PM 50.2000 -113.2167 342° North 420 483 27,600 -2,367 Descending Edmonton Center
Mon 11:43:58 PM 50.4167 -113.2833 347° North 390 449 22,700 -2,467 Descending Edmonton Center
Mon 11:44:58 PM 50.5333 -113.3333 345° North 370 426 20,200 -2,400 Descending Edmonton Center
Mon 11:45:58 PM 50.6167 -113.3667 346° North 350 403 17,900 -2,350 Descending Edmonton Center
Mon 11:46:58 PM 50.7167 -113.4500 332° Northwest 340 391 15,500 -2,400 Descending Edmonton Center
Mon 11:47:58 PM 50.7667 -113.5333 314° West 330 380 13,100 -2,350 Descending Edmonton Center
Mon 11:48:58 PM 50.8333 -113.6333 317° Northwest 310 357 10,800 -1,550 Descending Edmonton Center
Mon 11:49:58 PM 50.8667 -113.7500 294° West 270 311 10,000 -1,100 Descending Edmonton Center
Mon 11:50:58 PM 50.9167 -113.8333 314° West 260 299 8,600 -1,000 Descending Edmonton Center
Mon 11:51:58 PM 50.9500 -113.9167 302° West 260 299 8,000 -500 Descending Edmonton Center
Mon 11:52:58 PM 50.9833 -114.0333 294° West 230 265 7,600 -800 Descending Edmonton Center
Mon 11:53:58 PM 51.0167 -114.1000 308° West 230 265 6,400 -650 Descending Edmonton Center
Mon 11:54:58 PM 51.0500 -114.1667 309° West 150 173 6,300 -50 Descending Edmonton Center
Mon 11:55:58 PM 51.0833 -114.1667 360° North 150 173 6,300 -600 Level Edmonton Center
Mon 11:56:58 PM 51.1167 -114.1500 17° North 160 184 5,100 -1,200 Descending Edmonton Center
Mon 11:57:58 PM 51.1000 -114.0667 108° East 150 173 3,900 -750 Descending Edmonton Center
Mon 11:58:58 PM 51.0833 -114.0333 129° Southeast 50 58 3,600 -150 Descending Edmonton Center
Mon 11:59:58 PM 51.0833 -114.0333 129° Southeast 10 12 3,600  Level Edmonton Center
Tue 12:01:58 AM 51.0833 -114.0333 279° West 20 23 3,600  Level Edmonton Center
Tue 12:02:58 AM 51.1000 -114.0333 360° North 20 23 3,600  Level Edmonton Center
Tue 12:03:58 AM 51.1000 -114.0333 360° North 10 12 3,600  Level Edmonton Center

Login

Don't have an account? Register now (free) for customized features, flight alerts, and more!